createdAt,value
2022-08-28T00:01:35.180Z,23.48
2022-08-28T00:04:01.893Z,23.49
2022-08-28T00:06:28.616Z,23.52
2022-08-28T00:08:55.512Z,23.53
2022-08-28T00:11:23.199Z,23.57
2022-08-28T00:13:49.882Z,23.58
2022-08-28T00:16:18.728Z,23.59
2022-08-28T00:18:45.559Z,23.61
2022-08-28T00:21:14.524Z,23.62
2022-08-28T00:23:43.337Z,23.61
2022-08-28T00:26:10.859Z,23.60
2022-08-28T00:28:37.376Z,23.59
2022-08-28T00:31:05.160Z,23.57
2022-08-28T00:33:33.747Z,23.56
2022-08-28T00:36:01.202Z,23.51
2022-08-28T00:38:28.655Z,23.46
2022-08-28T00:40:58.307Z,23.47
2022-08-28T00:43:46.038Z,23.44
2022-08-28T00:46:16.054Z,23.42
2022-08-28T00:48:42.773Z,23.41
2022-08-28T00:51:28.464Z,23.38
2022-08-28T00:53:58.611Z,23.32
2022-08-28T00:56:25.883Z,23.30
2022-08-28T00:58:53.295Z,23.28
2022-08-28T01:01:20.009Z,23.25
2022-08-28T01:03:46.751Z,23.28
2022-08-28T01:06:14.825Z,23.24
2022-08-28T01:08:43.060Z,23.20
2022-08-28T01:11:10.945Z,23.16
2022-08-28T01:13:39.639Z,23.19
2022-08-28T01:16:07.481Z,23.18
2022-08-28T01:18:34.874Z,23.20
2022-08-28T01:21:11.729Z,23.23
2022-08-28T01:24:09.094Z,23.22
2022-08-28T01:26:37.916Z,23.23
2022-08-28T01:29:04.907Z,23.25
2022-08-28T01:31:31.747Z,23.28
2022-08-28T01:34:01.319Z,23.27
2022-08-28T01:36:29.193Z,23.22
2022-08-28T01:39:08.028Z,23.14
2022-08-28T01:41:35.464Z,23.10
2022-08-28T01:44:02.095Z,23.09
2022-08-28T01:46:30.332Z,23.15
2022-08-28T01:48:57.020Z,23.20
2022-08-28T01:51:24.723Z,23.18
2022-08-28T01:53:52.039Z,23.11
2022-08-28T01:56:19.091Z,23.08
2022-08-28T01:58:48.101Z,23.06
2022-08-28T02:01:16.599Z,23.00
2022-08-28T02:03:43.340Z,22.97
2022-08-28T02:06:10.812Z,22.97
2022-08-28T02:08:37.360Z,22.91
2022-08-28T02:11:06.338Z,22.83
2022-08-28T02:13:33.873Z,22.81
2022-08-28T02:16:00.831Z,22.76
2022-08-28T02:18:27.712Z,22.71
2022-08-28T02:20:54.199Z,22.78
2022-08-28T02:23:20.703Z,22.81
2022-08-28T02:25:47.240Z,22.82
2022-08-28T02:28:16.304Z,22.81
2022-08-28T02:30:43.581Z,22.76
2022-08-28T02:33:10.086Z,22.73
2022-08-28T02:35:36.620Z,22.65
2022-08-28T02:38:03.807Z,22.57
2022-08-28T02:40:30.399Z,22.52
2022-08-28T02:42:57.364Z,22.50
2022-08-28T02:45:23.891Z,22.47
2022-08-28T02:47:52.049Z,22.50
2022-08-28T02:50:19.671Z,22.57
2022-08-28T02:52:46.514Z,22.52
2022-08-28T02:55:14.103Z,22.48
2022-08-28T02:57:41.334Z,22.48
2022-08-28T03:00:10.412Z,22.47
2022-08-28T03:02:36.926Z,22.50
2022-08-28T03:05:03.737Z,22.51
2022-08-28T03:07:30.339Z,22.56
2022-08-28T03:09:56.999Z,22.57
2022-08-28T03:12:26.376Z,22.54
2022-08-28T03:14:54.078Z,22.52
2022-08-28T03:17:21.544Z,22.50
2022-08-28T03:19:49.994Z,22.45
2022-08-28T03:22:17.316Z,22.45
2022-08-28T03:24:44.899Z,22.47
2022-08-28T03:27:13.198Z,22.42
2022-08-28T03:29:39.777Z,22.43
2022-08-28T03:32:06.420Z,22.42
2022-08-28T03:34:33.685Z,22.40
2022-08-28T03:37:01.231Z,22.44
2022-08-28T03:39:27.861Z,22.48
2022-08-28T03:41:54.465Z,22.49
2022-08-28T03:44:21.388Z,22.52
2022-08-28T03:46:47.851Z,22.41
2022-08-28T03:49:14.322Z,22.29
2022-08-28T03:51:41.194Z,22.28
2022-08-28T03:54:07.660Z,22.25
2022-08-28T03:56:34.147Z,22.16
2022-08-28T03:59:01.461Z,22.13
2022-08-28T04:01:28.152Z,22.10
2022-08-28T04:03:55.943Z,22.13
2022-08-28T04:06:22.992Z,22.14
2022-08-28T04:08:50.908Z,22.15
2022-08-28T04:11:18.257Z,22.17
2022-08-28T04:13:45.015Z,22.17
2022-08-28T04:16:12.902Z,22.10
2022-08-28T04:18:40.734Z,22.00
2022-08-28T04:21:11.768Z,21.99
2022-08-28T04:23:39.173Z,21.98
2022-08-28T04:26:06.692Z,21.98
2022-08-28T04:28:33.413Z,21.94
2022-08-28T04:30:59.951Z,21.90
2022-08-28T04:33:28.283Z,21.87
2022-08-28T04:35:55.340Z,21.86
2022-08-28T04:38:22.239Z,21.85
2022-08-28T04:40:48.744Z,21.88
2022-08-28T04:43:15.308Z,21.93
2022-08-28T04:45:43.360Z,21.97
2022-08-28T04:48:13.167Z,21.98
2022-08-28T04:50:43.607Z,21.96
2022-08-28T04:53:10.411Z,21.99
2022-08-28T04:55:45.100Z,22.06
2022-08-28T04:58:23.835Z,22.01
2022-08-28T05:00:51.747Z,22.04
2022-08-28T05:03:18.356Z,22.08
2022-08-28T05:05:46.339Z,22.05
2022-08-28T05:08:13.997Z,21.98
2022-08-28T05:10:41.614Z,21.96
2022-08-28T05:13:09.004Z,22.01
2022-08-28T05:15:40.143Z,22.02
2022-08-28T05:18:06.656Z,22.02
2022-08-28T05:20:37.145Z,22.06
2022-08-28T05:23:04.539Z,22.09
2022-08-28T05:25:34.164Z,22.10
2022-08-28T05:28:00.593Z,22.14
2022-08-28T05:30:27.181Z,22.17
2022-08-28T05:32:53.968Z,22.23
2022-08-28T05:35:20.488Z,22.25
2022-08-28T05:37:46.999Z,22.24
2022-08-28T05:40:13.764Z,22.33
2022-08-28T05:42:40.328Z,22.33
2022-08-28T05:45:07.160Z,22.35
2022-08-28T05:47:33.713Z,22.35
2022-08-28T05:50:00.195Z,22.34
2022-08-28T05:52:28.686Z,22.44
2022-08-28T05:54:55.751Z,22.49
2022-08-28T05:57:22.205Z,22.55
2022-08-28T05:59:49.690Z,22.62
2022-08-28T06:02:16.538Z,22.67
2022-08-28T06:04:43.022Z,22.67
2022-08-28T06:07:12.079Z,22.74
2022-08-28T06:09:38.599Z,22.85
2022-08-28T06:12:05.486Z,22.98
2022-08-28T06:14:33.083Z,23.13
2022-08-28T06:17:01.364Z,23.22
2022-08-28T06:19:29.012Z,23.18
2022-08-28T06:21:57.153Z,23.11
2022-08-28T06:24:24.214Z,23.10
2022-08-28T06:26:52.003Z,23.16
2022-08-28T06:29:21.142Z,23.26
2022-08-28T06:31:53.085Z,23.43
2022-08-28T06:34:19.807Z,23.60
2022-08-28T06:36:48.582Z,23.76
2022-08-28T06:39:18.347Z,23.77
2022-08-28T06:41:44.858Z,23.91
2022-08-28T06:44:13.400Z,23.91
2022-08-28T06:46:40.462Z,23.99
2022-08-28T06:49:08.355Z,24.00
2022-08-28T06:51:35.571Z,23.98
2022-08-28T06:54:02.554Z,23.93
2022-08-28T06:56:29.768Z,23.82
2022-08-28T06:58:57.547Z,23.83
2022-08-28T07:01:25.665Z,23.80
2022-08-28T07:03:53.928Z,23.79
2022-08-28T07:06:21.725Z,23.90
2022-08-28T07:08:48.884Z,24.08
2022-08-28T07:11:19.051Z,24.13
2022-08-28T07:13:45.998Z,24.25
2022-08-28T07:16:13.530Z,24.26
2022-08-28T07:18:40.181Z,24.29
2022-08-28T07:21:11.632Z,24.42
2022-08-28T07:23:39.173Z,24.72
2022-08-28T07:26:07.245Z,25.02
2022-08-28T07:28:34.303Z,25.04
2022-08-28T07:31:02.733Z,25.00
2022-08-28T07:33:29.512Z,25.06
2022-08-28T07:35:56.915Z,25.17
2022-08-28T07:38:25.298Z,25.21
2022-08-28T07:40:52.022Z,25.27
2022-08-28T07:43:37.259Z,25.36
2022-08-28T07:46:07.077Z,25.58
2022-08-28T07:48:35.351Z,25.77
2022-08-28T07:51:05.692Z,26.00
2022-08-28T07:53:36.368Z,26.26
2022-08-28T07:56:03.640Z,26.46
2022-08-28T07:58:30.116Z,26.56
2022-08-28T08:00:57.716Z,26.48
2022-08-28T08:03:25.625Z,26.57
2022-08-28T08:05:53.674Z,26.81
2022-08-28T08:08:20.215Z,27.16
2022-08-28T08:10:56.034Z,27.46
2022-08-28T08:13:22.903Z,27.79
2022-08-28T08:15:49.439Z,27.90
2022-08-28T08:18:17.240Z,28.10
2022-08-28T08:20:47.735Z,28.24
2022-08-28T08:23:15.438Z,28.33
2022-08-28T08:25:41.902Z,28.16
2022-08-28T08:28:08.663Z,27.91
2022-08-28T08:30:36.361Z,27.72
2022-08-28T08:33:03.005Z,27.31
2022-08-28T08:35:29.569Z,27.07
2022-08-28T08:37:58.689Z,27.18
2022-08-28T08:40:27.268Z,27.41
2022-08-28T08:42:57.017Z,27.80
2022-08-28T08:45:26.612Z,29.64
2022-08-28T08:47:55.817Z,33.21
2022-08-28T08:50:27.060Z,36.05
2022-08-28T08:52:59.702Z,38.71
2022-08-28T08:55:28.762Z,40.07
2022-08-28T08:58:11.322Z,39.57
2022-08-28T09:00:53.652Z,41.04
2022-08-28T09:03:25.778Z,42.65
2022-08-28T09:05:58.141Z,41.36
2022-08-28T09:08:31.115Z,41.76
2022-08-28T09:11:02.995Z,40.80
2022-08-28T09:13:38.500Z,39.37
2022-08-28T09:16:10.985Z,38.32
2022-08-28T09:18:38.363Z,38.64
2022-08-28T09:21:05.580Z,38.38
2022-08-28T09:23:32.190Z,36.73
2022-08-28T09:26:02.381Z,35.18
2022-08-28T09:28:32.039Z,33.80
2022-08-28T09:30:58.720Z,32.69
2022-08-28T09:33:34.612Z,31.85
2022-08-28T09:36:20.265Z,30.82
2022-08-28T09:38:46.887Z,31.36
2022-08-28T09:41:32.139Z,35.10
2022-08-28T09:43:58.770Z,38.01
2022-08-28T09:46:29.523Z,39.45
2022-08-28T09:49:10.213Z,41.21
2022-08-28T09:51:38.762Z,44.33
2022-08-28T09:54:08.970Z,45.66
2022-08-28T09:56:36.373Z,45.94
2022-08-28T09:59:06.798Z,47.12
2022-08-28T10:01:46.642Z,46.70
2022-08-28T10:04:19.537Z,46.00
2022-08-28T10:06:54.918Z,44.46
2022-08-28T10:09:40.168Z,44.15
2022-08-28T10:12:14.121Z,44.57
2022-08-28T10:14:52.939Z,45.12
2022-08-28T10:17:25.559Z,45.67
2022-08-28T10:19:57.691Z,44.76
2022-08-28T10:22:24.168Z,45.40
2022-08-28T10:24:53.700Z,46.18
2022-08-28T10:27:22.944Z,47.01
2022-08-28T10:29:49.862Z,47.14
2022-08-28T10:32:35.286Z,47.19
2022-08-28T10:35:11.933Z,46.93
2022-08-28T10:37:45.506Z,47.73
2022-08-28T10:40:24.382Z,46.01
2022-08-28T10:42:55.874Z,45.24
2022-08-28T10:45:23.833Z,47.05
2022-08-28T10:47:59.636Z,48.05
2022-08-28T10:50:28.778Z,49.99
2022-08-28T10:53:02.729Z,50.31
2022-08-28T10:55:48.021Z,48.83
2022-08-28T10:58:24.478Z,50.45
2022-08-28T11:00:56.624Z,50.82
2022-08-28T11:03:34.294Z,51.49
2022-08-28T11:06:08.327Z,50.54
2022-08-28T11:08:36.942Z,47.92
2022-08-28T11:11:05.407Z,45.06
2022-08-28T11:13:51.164Z,42.61
2022-08-28T11:16:20.649Z,41.50
2022-08-28T11:18:59.644Z,44.83
2022-08-28T11:21:26.383Z,47.48
2022-08-28T11:24:24.100Z,48.82
2022-08-28T11:26:58.207Z,48.81
2022-08-28T11:29:43.407Z,48.56
2022-08-28T11:32:28.834Z,50.20
2022-08-28T11:34:55.761Z,51.38
2022-08-28T11:37:42.087Z,51.72
2022-08-28T11:40:19.429Z,51.97
2022-08-28T11:42:48.821Z,52.56
2022-08-28T11:45:19.959Z,53.06
2022-08-28T11:47:52.892Z,53.04
2022-08-28T11:50:27.999Z,53.04
2022-08-28T11:53:10.027Z,52.86
2022-08-28T11:55:49.130Z,52.44
2022-08-28T11:58:19.212Z,52.41
2022-08-28T12:00:51.802Z,52.26
2022-08-28T12:03:28.612Z,51.64
2022-08-28T12:05:56.856Z,49.80
2022-08-28T12:08:42.279Z,49.68
2022-08-28T12:11:08.956Z,48.21
2022-08-28T12:13:44.999Z,48.44
2022-08-28T12:16:12.249Z,49.36
2022-08-28T12:18:43.032Z,49.99
2022-08-28T12:21:22.973Z,50.03
2022-08-28T12:24:04.121Z,47.87
2022-08-28T12:26:37.250Z,44.71
2022-08-28T12:29:16.409Z,42.70
2022-08-28T12:32:11.409Z,41.56
2022-08-28T12:34:46.287Z,40.32
2022-08-28T12:37:25.041Z,39.34
2022-08-28T12:39:52.139Z,38.72
2022-08-28T12:42:20.184Z,38.40
2022-08-28T12:44:47.270Z,38.31
2022-08-28T12:47:15.440Z,38.23
2022-08-28T12:49:42.128Z,37.81
2022-08-28T12:52:22.372Z,37.13
2022-08-28T12:54:49.895Z,36.15
2022-08-28T12:57:18.247Z,35.52
2022-08-28T12:59:46.386Z,35.05
2022-08-28T13:02:20.723Z,34.92
2022-08-28T13:05:07.853Z,35.01
2022-08-28T13:07:36.960Z,34.94
2022-08-28T13:10:22.368Z,34.90
2022-08-28T13:13:03.247Z,35.02
2022-08-28T13:15:50.278Z,35.14
2022-08-28T13:18:36.569Z,35.14
2022-08-28T13:21:12.118Z,34.74
2022-08-28T13:23:38.673Z,34.74
2022-08-28T13:26:05.941Z,34.60
2022-08-28T13:28:36.913Z,34.29
2022-08-28T13:31:03.689Z,33.75
2022-08-28T13:33:30.591Z,33.79
2022-08-28T13:35:57.499Z,33.76
2022-08-28T13:38:25.038Z,33.73
2022-08-28T13:40:57.998Z,33.72
2022-08-28T13:43:26.517Z,33.78
2022-08-28T13:45:53.521Z,33.94
2022-08-28T13:48:21.602Z,33.94
2022-08-28T13:50:50.203Z,34.05
2022-08-28T13:53:18.573Z,34.42
2022-08-28T13:55:46.231Z,34.56
2022-08-28T13:58:13.957Z,34.67
2022-08-28T14:00:42.409Z,34.54
2022-08-28T14:03:27.614Z,34.18
2022-08-28T14:05:54.579Z,33.86
2022-08-28T14:08:21.683Z,33.55
2022-08-28T14:10:48.365Z,33.39
2022-08-28T14:13:15.068Z,33.23
2022-08-28T14:15:41.780Z,33.16
2022-08-28T14:18:08.297Z,33.05
2022-08-28T14:20:34.804Z,32.96
2022-08-28T14:23:01.327Z,32.65
2022-08-28T14:25:27.883Z,32.55
2022-08-28T14:27:55.852Z,32.56
2022-08-28T14:30:22.993Z,32.73
2022-08-28T14:32:49.535Z,32.72
2022-08-28T14:35:16.165Z,32.76
2022-08-28T14:37:42.818Z,32.75
2022-08-28T14:40:10.084Z,32.60
2022-08-28T14:42:36.727Z,32.45
2022-08-28T14:45:03.673Z,32.38
2022-08-28T14:47:30.535Z,32.31
2022-08-28T14:49:57.123Z,32.22
2022-08-28T14:52:23.860Z,31.98
2022-08-28T14:54:50.465Z,31.83
2022-08-28T14:57:17.065Z,31.69
2022-08-28T14:59:45.279Z,31.84
2022-08-28T15:02:13.502Z,32.06
2022-08-28T15:04:40.087Z,32.08
2022-08-28T15:07:08.297Z,32.09
2022-08-28T15:09:36.112Z,32.19
2022-08-28T15:12:02.802Z,32.10
2022-08-28T15:14:29.460Z,31.92
2022-08-28T15:16:56.135Z,31.44
2022-08-28T15:19:23.476Z,31.25
2022-08-28T15:21:51.895Z,31.25
2022-08-28T15:24:22.060Z,31.24
2022-08-28T15:26:48.660Z,31.05
2022-08-28T15:29:15.241Z,31.06
2022-08-28T15:31:42.835Z,31.09
2022-08-28T15:34:14.539Z,31.04
2022-08-28T15:36:42.082Z,30.97
2022-08-28T15:39:27.460Z,30.79
2022-08-28T15:41:54.136Z,30.54
2022-08-28T15:44:20.744Z,30.57
2022-08-28T15:46:50.588Z,30.60
2022-08-28T15:49:17.573Z,30.59
2022-08-28T15:51:44.334Z,30.63
2022-08-28T15:54:11.282Z,30.97
2022-08-28T15:56:38.056Z,31.62
2022-08-28T15:59:04.734Z,31.66
2022-08-28T16:01:31.347Z,31.69
2022-08-28T16:03:57.926Z,31.46
2022-08-28T16:06:24.569Z,31.08
2022-08-28T16:08:51.103Z,30.82
2022-08-28T16:11:19.041Z,30.58
2022-08-28T16:13:46.460Z,30.43
2022-08-28T16:16:13.140Z,30.35
2022-08-28T16:18:39.717Z,30.28
2022-08-28T16:21:06.491Z,30.23
2022-08-28T16:23:35.070Z,30.20
2022-08-28T16:26:05.184Z,30.17
2022-08-28T16:28:33.294Z,30.09
2022-08-28T16:31:04.750Z,29.97
2022-08-28T16:33:34.151Z,29.88
2022-08-28T16:36:03.714Z,29.79
2022-08-28T16:38:30.543Z,29.78
2022-08-28T16:40:57.181Z,29.77
2022-08-28T16:43:23.666Z,29.68
2022-08-28T16:45:51.004Z,29.59
2022-08-28T16:48:17.612Z,29.57
2022-08-28T16:50:45.014Z,29.55
2022-08-28T16:53:12.288Z,29.50
2022-08-28T16:55:40.479Z,29.39
2022-08-28T16:58:07.198Z,29.31
2022-08-28T17:00:34.043Z,29.23
2022-08-28T17:03:11.031Z,29.10
2022-08-28T17:05:37.529Z,29.00
2022-08-28T17:08:04.952Z,28.88
2022-08-28T17:10:31.659Z,28.77
2022-08-28T17:12:58.199Z,28.74
2022-08-28T17:15:24.826Z,28.72
2022-08-28T17:17:52.035Z,28.67
2022-08-28T17:20:37.413Z,28.60
2022-08-28T17:23:05.777Z,28.57
2022-08-28T17:25:32.309Z,28.48
2022-08-28T17:27:59.088Z,28.43
2022-08-28T17:30:25.850Z,28.40
2022-08-28T17:32:53.297Z,28.34
2022-08-28T17:35:20.339Z,28.30
2022-08-28T17:37:47.046Z,28.30
2022-08-28T17:40:15.608Z,28.24
2022-08-28T17:42:42.514Z,28.20
2022-08-28T17:45:10.129Z,28.18
2022-08-28T17:47:36.727Z,28.08
2022-08-28T17:50:04.906Z,28.03
2022-08-28T17:52:32.079Z,27.95
2022-08-28T17:54:58.679Z,27.88
2022-08-28T17:57:25.310Z,27.82
2022-08-28T17:59:51.984Z,27.79
2022-08-28T18:02:19.205Z,27.73
2022-08-28T18:04:45.838Z,27.62
2022-08-28T18:07:12.867Z,27.56
2022-08-28T18:09:39.544Z,27.54
2022-08-28T18:12:06.821Z,27.50
2022-08-28T18:14:39.723Z,27.44
2022-08-28T18:17:06.626Z,27.39
2022-08-28T18:19:36.812Z,27.33
2022-08-28T18:22:03.373Z,27.31
2022-08-28T18:24:31.921Z,27.30
2022-08-28T18:26:58.723Z,27.27
2022-08-28T18:29:25.469Z,27.21
2022-08-28T18:31:52.168Z,27.15
2022-08-28T18:34:18.784Z,27.11
2022-08-28T18:36:45.313Z,27.08
2022-08-28T18:39:12.053Z,27.05
2022-08-28T18:41:43.754Z,27.01
2022-08-28T18:44:11.797Z,26.98
2022-08-28T18:46:38.549Z,26.95
2022-08-28T18:49:05.339Z,26.93
2022-08-28T18:51:32.610Z,26.89
2022-08-28T18:54:01.010Z,26.82
2022-08-28T18:56:30.350Z,26.75
2022-08-28T18:58:59.340Z,26.66
2022-08-28T19:01:26.058Z,26.59
2022-08-28T19:03:53.498Z,26.53
2022-08-28T19:06:20.064Z,26.51
2022-08-28T19:08:46.671Z,26.46
2022-08-28T19:11:14.257Z,26.42
2022-08-28T19:13:41.705Z,26.35
2022-08-28T19:16:08.717Z,26.25
2022-08-28T19:18:35.296Z,26.19
2022-08-28T19:21:09.739Z,26.17
2022-08-28T19:23:41.739Z,26.15
2022-08-28T19:26:18.391Z,26.09
2022-08-28T19:28:45.434Z,26.06
2022-08-28T19:31:12.081Z,26.01
2022-08-28T19:33:39.505Z,25.96
2022-08-28T19:36:06.099Z,25.91
2022-08-28T19:38:33.386Z,25.87
2022-08-28T19:41:00.004Z,25.84
2022-08-28T19:43:31.191Z,25.81
2022-08-28T19:46:18.428Z,25.78
2022-08-28T19:48:48.291Z,25.72
2022-08-28T19:51:22.288Z,25.67
2022-08-28T19:53:57.921Z,25.62
2022-08-28T19:56:29.269Z,25.59
2022-08-28T19:58:58.295Z,25.54
2022-08-28T20:01:25.878Z,25.51
2022-08-28T20:03:52.539Z,25.51
2022-08-28T20:06:19.220Z,25.48
2022-08-28T20:08:45.793Z,25.42
2022-08-28T20:11:16.399Z,25.36
2022-08-28T20:13:43.034Z,25.34
2022-08-28T20:16:10.625Z,25.29
2022-08-28T20:18:37.282Z,25.28
2022-08-28T20:21:04.453Z,25.24
2022-08-28T20:23:31.110Z,25.21
2022-08-28T20:25:57.687Z,25.17
2022-08-28T20:28:24.334Z,25.13
2022-08-28T20:30:51.037Z,25.10
2022-08-28T20:33:17.752Z,25.05
2022-08-28T20:35:44.466Z,25.02
2022-08-28T20:38:11.325Z,25.00
2022-08-28T20:40:38.081Z,24.96
2022-08-28T20:43:04.799Z,24.94
2022-08-28T20:45:31.553Z,24.90
2022-08-28T20:47:58.091Z,24.87
2022-08-28T20:50:24.818Z,24.85
2022-08-28T20:52:51.386Z,24.80
2022-08-28T20:55:18.212Z,24.74
2022-08-28T20:57:44.761Z,24.66
2022-08-28T21:00:11.777Z,24.60
2022-08-28T21:02:39.178Z,24.52
2022-08-28T21:05:05.969Z,24.49
2022-08-28T21:07:34.267Z,24.45
2022-08-28T21:10:07.032Z,24.42
2022-08-28T21:12:38.272Z,24.39
2022-08-28T21:15:06.426Z,24.35
2022-08-28T21:17:32.927Z,24.27
2022-08-28T21:20:00.619Z,24.23
2022-08-28T21:22:27.253Z,24.21
2022-08-28T21:24:54.069Z,24.22
2022-08-28T21:27:20.603Z,24.20
2022-08-28T21:29:47.799Z,24.21
2022-08-28T21:32:14.399Z,24.20
2022-08-28T21:34:40.956Z,24.15
2022-08-28T21:37:07.487Z,24.07
2022-08-28T21:39:34.756Z,24.01
2022-08-28T21:42:01.352Z,23.98
2022-08-28T21:44:27.860Z,23.92
2022-08-28T21:46:54.491Z,23.87
2022-08-28T21:49:22.637Z,23.83
2022-08-28T21:51:49.772Z,23.78
2022-08-28T21:54:16.673Z,23.69
2022-08-28T21:56:43.188Z,23.66
2022-08-28T21:59:09.807Z,23.60
2022-08-28T22:01:36.460Z,23.58
2022-08-28T22:04:03.300Z,23.57
2022-08-28T22:06:29.843Z,23.54
2022-08-28T22:08:57.155Z,23.55
2022-08-28T22:11:24.951Z,23.49
2022-08-28T22:13:52.165Z,23.45
2022-08-28T22:16:18.967Z,23.45
2022-08-28T22:18:45.564Z,23.40
2022-08-28T22:21:32.073Z,23.36
2022-08-28T22:23:58.628Z,23.29
2022-08-28T22:26:25.233Z,23.25
2022-08-28T22:28:51.747Z,23.22
2022-08-28T22:31:18.270Z,23.20
2022-08-28T22:33:45.457Z,23.18
2022-08-28T22:36:12.017Z,23.19
2022-08-28T22:38:39.285Z,23.15
2022-08-28T22:41:06.520Z,23.11
2022-08-28T22:43:33.039Z,23.07
2022-08-28T22:45:59.617Z,23.05
2022-08-28T22:48:26.385Z,22.95
2022-08-28T22:51:00.203Z,22.90
2022-08-28T22:53:26.709Z,22.89
2022-08-28T22:55:53.160Z,22.89
2022-08-28T22:58:19.702Z,22.89
2022-08-28T23:00:46.192Z,22.85
2022-08-28T23:03:12.877Z,22.81
2022-08-28T23:05:39.413Z,22.77
2022-08-28T23:08:05.960Z,22.73
2022-08-28T23:10:57.501Z,22.71
2022-08-28T23:13:20.222Z,22.63
2022-08-28T23:15:47.968Z,22.56
2022-08-28T23:18:15.742Z,22.48
2022-08-28T23:20:42.648Z,22.46
2022-08-28T23:23:09.600Z,22.43
2022-08-28T23:25:36.147Z,22.36
2022-08-28T23:28:06.383Z,22.32
2022-08-28T23:30:33.552Z,22.28
2022-08-28T23:33:00.038Z,22.23
2022-08-28T23:35:26.539Z,22.20
2022-08-28T23:37:53.296Z,22.24
2022-08-28T23:40:21.247Z,22.26
2022-08-28T23:42:48.968Z,22.21
2022-08-28T23:45:16.804Z,22.14
2022-08-28T23:47:43.645Z,22.08
2022-08-28T23:50:13.908Z,22.08
2022-08-28T23:52:40.504Z,22.05
2022-08-28T23:55:07.330Z,22.00
2022-08-28T23:57:34.543Z,21.98
